sensor_id;sensor_type;location;lat;lon;timestamp;P1;durP1;ratioP1;P2;durP2;ratioP2
80322;SDS011;69636;52.372;13.610;2023-07-20T00:01:54;7.88;;;5.57;;
80322;SDS011;69636;52.372;13.610;2023-07-20T00:04:22;7.97;;;5.90;;
80322;SDS011;69636;52.372;13.610;2023-07-20T00:06:49;8.02;;;5.63;;
80322;SDS011;69636;52.372;13.610;2023-07-20T00:09:17;7.55;;;5.80;;
80322;SDS011;69636;52.372;13.610;2023-07-20T00:11:48;6.50;;;5.53;;
80322;SDS011;69636;52.372;13.610;2023-07-20T00:14:17;8.10;;;6.00;;
80322;SDS011;69636;52.372;13.610;2023-07-20T00:19:13;9.43;;;5.43;;
80322;SDS011;69636;52.372;13.610;2023-07-20T00:21:41;7.70;;;5.70;;
80322;SDS011;69636;52.372;13.610;2023-07-20T00:24:09;7.15;;;5.30;;
80322;SDS011;69636;52.372;13.610;2023-07-20T00:26:36;8.20;;;5.72;;
80322;SDS011;69636;52.372;13.610;2023-07-20T00:29:03;7.78;;;5.80;;
80322;SDS011;69636;52.372;13.610;2023-07-20T00:31:32;7.60;;;5.75;;
80322;SDS011;69636;52.372;13.610;2023-07-20T00:34:01;7.13;;;5.85;;
80322;SDS011;69636;52.372;13.610;2023-07-20T00:36:28;9.00;;;6.28;;
80322;SDS011;69636;52.372;13.610;2023-07-20T00:39:00;7.45;;;6.13;;
80322;SDS011;69636;52.372;13.610;2023-07-20T00:41:28;6.93;;;5.68;;
80322;SDS011;69636;52.372;13.610;2023-07-20T00:43:55;7.95;;;5.78;;
80322;SDS011;69636;52.372;13.610;2023-07-20T00:46:30;8.35;;;5.25;;
80322;SDS011;69636;52.372;13.610;2023-07-20T00:48:58;7.40;;;5.88;;
80322;SDS011;69636;52.372;13.610;2023-07-20T00:51:28;6.47;;;5.50;;
80322;SDS011;69636;52.372;13.610;2023-07-20T00:53:56;7.93;;;5.55;;
80322;SDS011;69636;52.372;13.610;2023-07-20T00:56:24;8.27;;;6.10;;
80322;SDS011;69636;52.372;13.610;2023-07-20T00:58:52;7.72;;;6.00;;
80322;SDS011;69636;52.372;13.610;2023-07-20T01:01:20;7.60;;;6.32;;
80322;SDS011;69636;52.372;13.610;2023-07-20T01:03:49;7.28;;;5.45;;
80322;SDS011;69636;52.372;13.610;2023-07-20T01:06:21;7.47;;;5.72;;
80322;SDS011;69636;52.372;13.610;2023-07-20T01:09:02;8.00;;;6.35;;
80322;SDS011;69636;52.372;13.610;2023-07-20T01:11:37;8.80;;;5.65;;
80322;SDS011;69636;52.372;13.610;2023-07-20T01:14:11;8.05;;;5.38;;
80322;SDS011;69636;52.372;13.610;2023-07-20T01:16:39;7.38;;;5.57;;
80322;SDS011;69636;52.372;13.610;2023-07-20T01:19:06;7.43;;;5.90;;
80322;SDS011;69636;52.372;13.610;2023-07-20T01:21:37;7.07;;;5.32;;
80322;SDS011;69636;52.372;13.610;2023-07-20T01:24:16;8.95;;;5.82;;
80322;SDS011;69636;52.372;13.610;2023-07-20T01:27:18;8.07;;;6.15;;
80322;SDS011;69636;52.372;13.610;2023-07-20T01:32:53;10.98;;;7.30;;
80322;SDS011;69636;52.372;13.610;2023-07-20T01:35:23;11.48;;;8.45;;
80322;SDS011;69636;52.372;13.610;2023-07-20T01:37:57;10.32;;;7.60;;
80322;SDS011;69636;52.372;13.610;2023-07-20T01:40:26;10.48;;;7.90;;
80322;SDS011;69636;52.372;13.610;2023-07-20T01:42:54;10.57;;;8.10;;
80322;SDS011;69636;52.372;13.610;2023-07-20T01:45:22;12.48;;;9.25;;
80322;SDS011;69636;52.372;13.610;2023-07-20T01:47:49;12.98;;;9.07;;
80322;SDS011;69636;52.372;13.610;2023-07-20T01:50:18;11.50;;;9.15;;
80322;SDS011;69636;52.372;13.610;2023-07-20T01:52:46;13.18;;;9.80;;
80322;SDS011;69636;52.372;13.610;2023-07-20T01:55:13;12.55;;;8.95;;
80322;SDS011;69636;52.372;13.610;2023-07-20T01:57:42;12.48;;;9.05;;
80322;SDS011;69636;52.372;13.610;2023-07-20T02:00:10;11.85;;;9.60;;
80322;SDS011;69636;52.372;13.610;2023-07-20T02:02:40;13.95;;;8.75;;
80322;SDS011;69636;52.372;13.610;2023-07-20T02:05:08;10.55;;;8.20;;
80322;SDS011;69636;52.372;13.610;2023-07-20T02:07:39;10.25;;;7.88;;
80322;SDS011;69636;52.372;13.610;2023-07-20T02:10:07;13.25;;;8.52;;
80322;SDS011;69636;52.372;13.610;2023-07-20T02:12:36;12.25;;;8.95;;
80322;SDS011;69636;52.372;13.610;2023-07-20T02:15:04;12.82;;;8.98;;
80322;SDS011;69636;52.372;13.610;2023-07-20T02:17:32;13.02;;;8.57;;
80322;SDS011;69636;52.372;13.610;2023-07-20T02:19:59;12.25;;;8.98;;
80322;SDS011;69636;52.372;13.610;2023-07-20T02:22:28;10.48;;;8.30;;
80322;SDS011;69636;52.372;13.610;2023-07-20T02:24:57;9.90;;;8.27;;
80322;SDS011;69636;52.372;13.610;2023-07-20T02:27:24;10.07;;;8.23;;
80322;SDS011;69636;52.372;13.610;2023-07-20T02:29:52;11.75;;;9.18;;
80322;SDS011;69636;52.372;13.610;2023-07-20T02:32:19;12.60;;;9.32;;
80322;SDS011;69636;52.372;13.610;2023-07-20T02:34:48;14.88;;;8.27;;
80322;SDS011;69636;52.372;13.610;2023-07-20T02:37:15;12.82;;;8.63;;
80322;SDS011;69636;52.372;13.610;2023-07-20T02:39:45;10.43;;;7.88;;
80322;SDS011;69636;52.372;13.610;2023-07-20T02:42:15;9.73;;;7.30;;
80322;SDS011;69636;52.372;13.610;2023-07-20T02:44:42;10.18;;;7.82;;
80322;SDS011;69636;52.372;13.610;2023-07-20T02:47:10;10.05;;;7.50;;
80322;SDS011;69636;52.372;13.610;2023-07-20T02:49:38;9.95;;;7.72;;
80322;SDS011;69636;52.372;13.610;2023-07-20T02:52:06;10.75;;;7.78;;
80322;SDS011;69636;52.372;13.610;2023-07-20T02:54:33;10.95;;;8.55;;
80322;SDS011;69636;52.372;13.610;2023-07-20T02:57:01;10.63;;;8.70;;
80322;SDS011;69636;52.372;13.610;2023-07-20T02:59:30;10.70;;;8.40;;
80322;SDS011;69636;52.372;13.610;2023-07-20T03:01:58;12.27;;;9.82;;
80322;SDS011;69636;52.372;13.610;2023-07-20T03:04:25;13.35;;;8.98;;
80322;SDS011;69636;52.372;13.610;2023-07-20T03:06:53;12.63;;;9.27;;
80322;SDS011;69636;52.372;13.610;2023-07-20T03:09:21;11.95;;;8.93;;
80322;SDS011;69636;52.372;13.610;2023-07-20T03:11:48;12.88;;;9.60;;
80322;SDS011;69636;52.372;13.610;2023-07-20T03:14:16;12.35;;;9.73;;
80322;SDS011;69636;52.372;13.610;2023-07-20T03:16:45;15.32;;;10.05;;
80322;SDS011;69636;52.372;13.610;2023-07-20T03:19:15;11.85;;;9.13;;
80322;SDS011;69636;52.372;13.610;2023-07-20T03:21:42;12.50;;;9.32;;
80322;SDS011;69636;52.372;13.610;2023-07-20T03:24:10;12.82;;;9.00;;
80322;SDS011;69636;52.372;13.610;2023-07-20T03:26:37;11.02;;;8.65;;
80322;SDS011;69636;52.372;13.610;2023-07-20T03:29:05;11.90;;;8.27;;
80322;SDS011;69636;52.372;13.610;2023-07-20T03:31:32;11.70;;;9.60;;
80322;SDS011;69636;52.372;13.610;2023-07-20T03:34:02;11.27;;;9.00;;
80322;SDS011;69636;52.372;13.610;2023-07-20T03:36:29;12.55;;;8.55;;
80322;SDS011;69636;52.372;13.610;2023-07-20T03:38:59;11.18;;;8.82;;
80322;SDS011;69636;52.372;13.610;2023-07-20T03:41:27;11.23;;;9.02;;
80322;SDS011;69636;52.372;13.610;2023-07-20T03:43:54;11.65;;;9.02;;
80322;SDS011;69636;52.372;13.610;2023-07-20T03:46:22;12.23;;;9.85;;
80322;SDS011;69636;52.372;13.610;2023-07-20T03:48:52;13.20;;;9.57;;
80322;SDS011;69636;52.372;13.610;2023-07-20T03:51:21;12.20;;;9.18;;
80322;SDS011;69636;52.372;13.610;2023-07-20T03:53:48;12.48;;;9.25;;
80322;SDS011;69636;52.372;13.610;2023-07-20T03:56:16;11.38;;;9.07;;
80322;SDS011;69636;52.372;13.610;2023-07-20T03:58:45;11.25;;;8.40;;
80322;SDS011;69636;52.372;13.610;2023-07-20T04:01:12;11.75;;;8.75;;
80322;SDS011;69636;52.372;13.610;2023-07-20T04:03:40;16.38;;;11.02;;
80322;SDS011;69636;52.372;13.610;2023-07-20T04:06:08;14.10;;;9.77;;
80322;SDS011;69636;52.372;13.610;2023-07-20T04:08:37;15.70;;;10.75;;
80322;SDS011;69636;52.372;13.610;2023-07-20T04:11:05;15.23;;;9.98;;
80322;SDS011;69636;52.372;13.610;2023-07-20T04:13:33;14.60;;;10.43;;
80322;SDS011;69636;52.372;13.610;2023-07-20T04:16:01;14.35;;;10.25;;
80322;SDS011;69636;52.372;13.610;2023-07-20T04:18:28;14.13;;;10.30;;
80322;SDS011;69636;52.372;13.610;2023-07-20T04:20:56;14.07;;;10.35;;
80322;SDS011;69636;52.372;13.610;2023-07-20T04:23:23;13.63;;;9.68;;
80322;SDS011;69636;52.372;13.610;2023-07-20T04:25:54;13.38;;;10.02;;
80322;SDS011;69636;52.372;13.610;2023-07-20T04:28:22;12.30;;;10.00;;
80322;SDS011;69636;52.372;13.610;2023-07-20T04:30:50;12.70;;;9.63;;
80322;SDS011;69636;52.372;13.610;2023-07-20T04:33:18;14.27;;;10.02;;
80322;SDS011;69636;52.372;13.610;2023-07-20T04:35:48;12.65;;;9.32;;
80322;SDS011;69636;52.372;13.610;2023-07-20T04:38:16;12.70;;;9.02;;
80322;SDS011;69636;52.372;13.610;2023-07-20T04:40:45;12.73;;;9.68;;
80322;SDS011;69636;52.372;13.610;2023-07-20T04:43:15;13.98;;;10.07;;
80322;SDS011;69636;52.372;13.610;2023-07-20T04:45:43;13.50;;;9.23;;
80322;SDS011;69636;52.372;13.610;2023-07-20T04:48:11;12.10;;;9.95;;
80322;SDS011;69636;52.372;13.610;2023-07-20T04:50:40;13.27;;;9.77;;
80322;SDS011;69636;52.372;13.610;2023-07-20T04:53:09;14.60;;;11.05;;
80322;SDS011;69636;52.372;13.610;2023-07-20T04:55:36;14.68;;;10.60;;
80322;SDS011;69636;52.372;13.610;2023-07-20T04:58:04;13.48;;;10.23;;
80322;SDS011;69636;52.372;13.610;2023-07-20T05:00:37;14.80;;;10.05;;
80322;SDS011;69636;52.372;13.610;2023-07-20T05:03:05;13.80;;;9.60;;
80322;SDS011;69636;52.372;13.610;2023-07-20T05:05:33;12.38;;;9.90;;
80322;SDS011;69636;52.372;13.610;2023-07-20T05:08:01;12.43;;;9.60;;
80322;SDS011;69636;52.372;13.610;2023-07-20T05:10:32;12.60;;;10.30;;
80322;SDS011;69636;52.372;13.610;2023-07-20T05:13:00;14.38;;;9.70;;
80322;SDS011;69636;52.372;13.610;2023-07-20T05:15:27;12.60;;;9.82;;
80322;SDS011;69636;52.372;13.610;2023-07-20T05:17:56;13.48;;;9.80;;
80322;SDS011;69636;52.372;13.610;2023-07-20T05:20:24;13.60;;;9.75;;
80322;SDS011;69636;52.372;13.610;2023-07-20T05:22:52;14.35;;;10.25;;
80322;SDS011;69636;52.372;13.610;2023-07-20T05:25:20;11.80;;;9.48;;
80322;SDS011;69636;52.372;13.610;2023-07-20T05:27:48;11.57;;;9.60;;
80322;SDS011;69636;52.372;13.610;2023-07-20T05:30:16;14.05;;;10.45;;
80322;SDS011;69636;52.372;13.610;2023-07-20T05:32:44;12.27;;;9.43;;
80322;SDS011;69636;52.372;13.610;2023-07-20T05:35:14;11.48;;;9.30;;
80322;SDS011;69636;52.372;13.610;2023-07-20T05:37:42;10.32;;;8.70;;
80322;SDS011;69636;52.372;13.610;2023-07-20T05:40:10;11.23;;;8.00;;
80322;SDS011;69636;52.372;13.610;2023-07-20T05:42:38;10.05;;;8.27;;
80322;SDS011;69636;52.372;13.610;2023-07-20T05:45:06;10.45;;;8.07;;
80322;SDS011;69636;52.372;13.610;2023-07-20T05:47:33;11.02;;;8.13;;
80322;SDS011;69636;52.372;13.610;2023-07-20T05:50:01;10.30;;;7.53;;
80322;SDS011;69636;52.372;13.610;2023-07-20T05:52:30;11.00;;;7.32;;
80322;SDS011;69636;52.372;13.610;2023-07-20T05:54:57;10.95;;;7.43;;
80322;SDS011;69636;52.372;13.610;2023-07-20T05:57:25;11.30;;;8.70;;
80322;SDS011;69636;52.372;13.610;2023-07-20T05:59:53;10.75;;;7.97;;
80322;SDS011;69636;52.372;13.610;2023-07-20T06:02:21;8.65;;;7.43;;
80322;SDS011;69636;52.372;13.610;2023-07-20T06:04:50;12.02;;;8.15;;
80322;SDS011;69636;52.372;13.610;2023-07-20T06:07:18;11.10;;;8.75;;
80322;SDS011;69636;52.372;13.610;2023-07-20T06:09:47;11.05;;;8.88;;
80322;SDS011;69636;52.372;13.610;2023-07-20T06:12:15;9.82;;;7.88;;
80322;SDS011;69636;52.372;13.610;2023-07-20T06:17:10;10.32;;;7.45;;
80322;SDS011;69636;52.372;13.610;2023-07-20T06:19:37;10.07;;;8.25;;
80322;SDS011;69636;52.372;13.610;2023-07-20T06:22:05;7.93;;;6.43;;
80322;SDS011;69636;52.372;13.610;2023-07-20T06:24:33;8.93;;;7.10;;
80322;SDS011;69636;52.372;13.610;2023-07-20T06:27:03;8.25;;;6.72;;
80322;SDS011;69636;52.372;13.610;2023-07-20T06:29:31;7.18;;;6.25;;
80322;SDS011;69636;52.372;13.610;2023-07-20T06:31:59;9.52;;;6.25;;
80322;SDS011;69636;52.372;13.610;2023-07-20T06:34:27;8.95;;;6.18;;
80322;SDS011;69636;52.372;13.610;2023-07-20T06:36:55;7.97;;;6.78;;
80322;SDS011;69636;52.372;13.610;2023-07-20T06:39:22;7.65;;;6.25;;
80322;SDS011;69636;52.372;13.610;2023-07-20T06:41:53;7.97;;;5.95;;
80322;SDS011;69636;52.372;13.610;2023-07-20T06:44:24;7.07;;;5.93;;
80322;SDS011;69636;52.372;13.610;2023-07-20T06:46:55;7.63;;;6.20;;
80322;SDS011;69636;52.372;13.610;2023-07-20T06:49:25;8.43;;;5.88;;
80322;SDS011;69636;52.372;13.610;2023-07-20T06:51:53;6.28;;;5.03;;
80322;SDS011;69636;52.372;13.610;2023-07-20T06:54:21;6.55;;;4.97;;
80322;SDS011;69636;52.372;13.610;2023-07-20T06:56:50;6.43;;;4.22;;
80322;SDS011;69636;52.372;13.610;2023-07-20T06:59:20;5.93;;;4.35;;
80322;SDS011;69636;52.372;13.610;2023-07-20T07:01:50;6.63;;;4.32;;
80322;SDS011;69636;52.372;13.610;2023-07-20T07:04:18;6.07;;;4.93;;
80322;SDS011;69636;52.372;13.610;2023-07-20T07:06:45;6.03;;;3.95;;
80322;SDS011;69636;52.372;13.610;2023-07-20T07:09:13;6.30;;;4.20;;
80322;SDS011;69636;52.372;13.610;2023-07-20T07:11:42;5.72;;;4.25;;
80322;SDS011;69636;52.372;13.610;2023-07-20T07:14:09;6.28;;;3.92;;
80322;SDS011;69636;52.372;13.610;2023-07-20T07:16:42;5.78;;;4.30;;
80322;SDS011;69636;52.372;13.610;2023-07-20T07:19:10;5.47;;;4.07;;
80322;SDS011;69636;52.372;13.610;2023-07-20T07:21:38;5.05;;;3.50;;
80322;SDS011;69636;52.372;13.610;2023-07-20T07:24:05;5.35;;;3.20;;
80322;SDS011;69636;52.372;13.610;2023-07-20T07:26:35;4.05;;;2.42;;
80322;SDS011;69636;52.372;13.610;2023-07-20T07:29:03;4.00;;;2.53;;
80322;SDS011;69636;52.372;13.610;2023-07-20T07:31:30;5.05;;;3.03;;
80322;SDS011;69636;52.372;13.610;2023-07-20T07:34:02;4.03;;;2.70;;
80322;SDS011;69636;52.372;13.610;2023-07-20T07:36:30;3.67;;;2.17;;
80322;SDS011;69636;52.372;13.610;2023-07-20T07:38:57;5.18;;;2.10;;
80322;SDS011;69636;52.372;13.610;2023-07-20T07:41:28;3.53;;;2.10;;
80322;SDS011;69636;52.372;13.610;2023-07-20T07:43:55;4.70;;;2.60;;
80322;SDS011;69636;52.372;13.610;2023-07-20T07:46:23;3.80;;;2.50;;
80322;SDS011;69636;52.372;13.610;2023-07-20T07:48:51;3.45;;;2.38;;
80322;SDS011;69636;52.372;13.610;2023-07-20T07:51:20;2.83;;;1.98;;
80322;SDS011;69636;52.372;13.610;2023-07-20T07:53:47;3.42;;;2.25;;
80322;SDS011;69636;52.372;13.610;2023-07-20T07:56:15;3.42;;;2.00;;
80322;SDS011;69636;52.372;13.610;2023-07-20T07:58:43;3.53;;;2.15;;
80322;SDS011;69636;52.372;13.610;2023-07-20T08:01:10;3.17;;;2.10;;
80322;SDS011;69636;52.372;13.610;2023-07-20T08:03:38;2.80;;;1.67;;
80322;SDS011;69636;52.372;13.610;2023-07-20T08:06:06;3.17;;;1.60;;
80322;SDS011;69636;52.372;13.610;2023-07-20T08:08:36;2.45;;;1.42;;
80322;SDS011;69636;52.372;13.610;2023-07-20T08:11:04;2.30;;;1.20;;
80322;SDS011;69636;52.372;13.610;2023-07-20T08:13:34;2.15;;;1.25;;
80322;SDS011;69636;52.372;13.610;2023-07-20T08:16:02;2.60;;;1.25;;
80322;SDS011;69636;52.372;13.610;2023-07-20T08:18:30;1.90;;;1.02;;
80322;SDS011;69636;52.372;13.610;2023-07-20T08:20:58;2.63;;;0.90;;
80322;SDS011;69636;52.372;13.610;2023-07-20T08:23:26;2.72;;;1.08;;
80322;SDS011;69636;52.372;13.610;2023-07-20T08:25:55;1.80;;;0.93;;
80322;SDS011;69636;52.372;13.610;2023-07-20T08:28:22;3.45;;;1.10;;
80322;SDS011;69636;52.372;13.610;2023-07-20T08:30:50;2.30;;;1.25;;
80322;SDS011;69636;52.372;13.610;2023-07-20T08:35:45;2.45;;;1.00;;
80322;SDS011;69636;52.372;13.610;2023-07-20T08:38:13;2.75;;;1.05;;
80322;SDS011;69636;52.372;13.610;2023-07-20T08:40:42;2.10;;;1.10;;
80322;SDS011;69636;52.372;13.610;2023-07-20T08:43:14;2.47;;;1.20;;
80322;SDS011;69636;52.372;13.610;2023-07-20T08:45:42;2.28;;;0.80;;
80322;SDS011;69636;52.372;13.610;2023-07-20T08:48:12;2.13;;;0.90;;
80322;SDS011;69636;52.372;13.610;2023-07-20T08:50:39;3.05;;;0.80;;
80322;SDS011;69636;52.372;13.610;2023-07-20T08:53:09;1.88;;;1.02;;
80322;SDS011;69636;52.372;13.610;2023-07-20T08:55:37;5.53;;;2.47;;
80322;SDS011;69636;52.372;13.610;2023-07-20T08:58:06;10.10;;;4.22;;
80322;SDS011;69636;52.372;13.610;2023-07-20T09:00:37;1.98;;;0.93;;
80322;SDS011;69636;52.372;13.610;2023-07-20T09:03:06;2.97;;;1.15;;
80322;SDS011;69636;52.372;13.610;2023-07-20T09:05:34;3.28;;;0.77;;
80322;SDS011;69636;52.372;13.610;2023-07-20T09:08:02;1.63;;;0.68;;
80322;SDS011;69636;52.372;13.610;2023-07-20T09:12:57;1.70;;;0.60;;
80322;SDS011;69636;52.372;13.610;2023-07-20T09:15:24;1.17;;;0.50;;
80322;SDS011;69636;52.372;13.610;2023-07-20T09:17:54;1.00;;;0.47;;
80322;SDS011;69636;52.372;13.610;2023-07-20T09:20:23;1.77;;;0.70;;
80322;SDS011;69636;52.372;13.610;2023-07-20T09:22:50;1.70;;;0.80;;
80322;SDS011;69636;52.372;13.610;2023-07-20T09:25:18;1.20;;;0.70;;
80322;SDS011;69636;52.372;13.610;2023-07-20T09:27:49;1.50;;;0.80;;
80322;SDS011;69636;52.372;13.610;2023-07-20T09:30:18;1.80;;;0.52;;
80322;SDS011;69636;52.372;13.610;2023-07-20T09:32:47;1.67;;;0.77;;
80322;SDS011;69636;52.372;13.610;2023-07-20T09:35:21;1.02;;;0.50;;
80322;SDS011;69636;52.372;13.610;2023-07-20T09:37:53;1.25;;;0.55;;
80322;SDS011;69636;52.372;13.610;2023-07-20T09:40:28;2.85;;;0.50;;
80322;SDS011;69636;52.372;13.610;2023-07-20T09:42:58;1.23;;;0.60;;
80322;SDS011;69636;52.372;13.610;2023-07-20T09:45:29;1.27;;;0.60;;
80322;SDS011;69636;52.372;13.610;2023-07-20T09:48:05;1.27;;;0.93;;
80322;SDS011;69636;52.372;13.610;2023-07-20T09:50:48;1.65;;;1.55;;
80322;SDS011;69636;52.372;13.610;2023-07-20T09:53:17;1.50;;;0.45;;
80322;SDS011;69636;52.372;13.610;2023-07-20T09:55:46;1.65;;;0.90;;
80322;SDS011;69636;52.372;13.610;2023-07-20T09:58:14;2.22;;;1.08;;
80322;SDS011;69636;52.372;13.610;2023-07-20T10:00:43;1.50;;;0.65;;
80322;SDS011;69636;52.372;13.610;2023-07-20T10:03:16;1.15;;;0.52;;
80322;SDS011;69636;52.372;13.610;2023-07-20T10:05:52;1.00;;;0.50;;
80322;SDS011;69636;52.372;13.610;2023-07-20T10:08:24;1.38;;;0.90;;
80322;SDS011;69636;52.372;13.610;2023-07-20T10:10:55;2.20;;;1.08;;
80322;SDS011;69636;52.372;13.610;2023-07-20T10:13:26;1.13;;;0.57;;
80322;SDS011;69636;52.372;13.610;2023-07-20T10:15:58;2.83;;;1.17;;
80322;SDS011;69636;52.372;13.610;2023-07-20T10:18:31;2.65;;;1.05;;
80322;SDS011;69636;52.372;13.610;2023-07-20T10:21:07;1.45;;;0.88;;
80322;SDS011;69636;52.372;13.610;2023-07-20T10:23:39;1.45;;;0.98;;
80322;SDS011;69636;52.372;13.610;2023-07-20T10:26:08;1.73;;;0.85;;
80322;SDS011;69636;52.372;13.610;2023-07-20T10:28:37;2.53;;;0.60;;
80322;SDS011;69636;52.372;13.610;2023-07-20T10:31:05;1.27;;;0.77;;
80322;SDS011;69636;52.372;13.610;2023-07-20T10:33:35;2.42;;;1.10;;
80322;SDS011;69636;52.372;13.610;2023-07-20T10:36:04;2.40;;;0.90;;
80322;SDS011;69636;52.372;13.610;2023-07-20T10:38:40;2.05;;;0.70;;
80322;SDS011;69636;52.372;13.610;2023-07-20T10:41:18;3.00;;;1.08;;
80322;SDS011;69636;52.372;13.610;2023-07-20T10:43:47;2.55;;;0.98;;
80322;SDS011;69636;52.372;13.610;2023-07-20T10:46:19;1.52;;;0.80;;
80322;SDS011;69636;52.372;13.610;2023-07-20T10:49:01;1.35;;;0.80;;
80322;SDS011;69636;52.372;13.610;2023-07-20T10:51:30;1.50;;;0.50;;
80322;SDS011;69636;52.372;13.610;2023-07-20T10:54:32;2.72;;;0.80;;
80322;SDS011;69636;52.372;13.610;2023-07-20T10:57:25;2.22;;;1.00;;
80322;SDS011;69636;52.372;13.610;2023-07-20T11:00:09;2.22;;;0.90;;
80322;SDS011;69636;52.372;13.610;2023-07-20T11:02:44;1.67;;;0.80;;
80322;SDS011;69636;52.372;13.610;2023-07-20T11:05:33;2.33;;;0.73;;
80322;SDS011;69636;52.372;13.610;2023-07-20T11:08:03;2.45;;;1.10;;
80322;SDS011;69636;52.372;13.610;2023-07-20T11:10:33;1.92;;;0.98;;
80322;SDS011;69636;52.372;13.610;2023-07-20T11:13:17;1.45;;;0.70;;
80322;SDS011;69636;52.372;13.610;2023-07-20T11:16:01;2.10;;;1.08;;
80322;SDS011;69636;52.372;13.610;2023-07-20T11:18:30;1.45;;;0.63;;
80322;SDS011;69636;52.372;13.610;2023-07-20T11:21:14;2.63;;;0.80;;
80322;SDS011;69636;52.372;13.610;2023-07-20T11:23:42;1.98;;;1.13;;
80322;SDS011;69636;52.372;13.610;2023-07-20T11:28:39;1.35;;;0.60;;
80322;SDS011;69636;52.372;13.610;2023-07-20T11:31:07;1.63;;;1.00;;
80322;SDS011;69636;52.372;13.610;2023-07-20T11:36:04;1.40;;;0.63;;
80322;SDS011;69636;52.372;13.610;2023-07-20T11:38:52;1.67;;;0.63;;
80322;SDS011;69636;52.372;13.610;2023-07-20T11:41:22;1.52;;;0.73;;
80322;SDS011;69636;52.372;13.610;2023-07-20T11:43:50;1.70;;;1.00;;
80322;SDS011;69636;52.372;13.610;2023-07-20T11:46:17;2.20;;;0.80;;
80322;SDS011;69636;52.372;13.610;2023-07-20T11:48:45;1.55;;;0.80;;
80322;SDS011;69636;52.372;13.610;2023-07-20T11:51:13;2.35;;;0.80;;
80322;SDS011;69636;52.372;13.610;2023-07-20T11:53:41;2.63;;;0.70;;
80322;SDS011;69636;52.372;13.610;2023-07-20T11:56:09;3.50;;;1.92;;
80322;SDS011;69636;52.372;13.610;2023-07-20T11:58:43;2.78;;;0.85;;
80322;SDS011;69636;52.372;13.610;2023-07-20T12:01:11;2.05;;;0.50;;
80322;SDS011;69636;52.372;13.610;2023-07-20T12:03:39;1.48;;;0.80;;
80322;SDS011;69636;52.372;13.610;2023-07-20T12:06:09;3.85;;;1.25;;
80322;SDS011;69636;52.372;13.610;2023-07-20T12:08:41;1.40;;;0.43;;
80322;SDS011;69636;52.372;13.610;2023-07-20T12:11:10;1.50;;;0.43;;
80322;SDS011;69636;52.372;13.610;2023-07-20T12:16:11;1.67;;;0.45;;
80322;SDS011;69636;52.372;13.610;2023-07-20T12:18:40;1.58;;;0.70;;
80322;SDS011;69636;52.372;13.610;2023-07-20T12:21:09;1.27;;;0.60;;
80322;SDS011;69636;52.372;13.610;2023-07-20T12:23:38;1.58;;;0.40;;
80322;SDS011;69636;52.372;13.610;2023-07-20T12:26:06;1.90;;;0.68;;
80322;SDS011;69636;52.372;13.610;2023-07-20T12:28:35;1.10;;;0.40;;
80322;SDS011;69636;52.372;13.610;2023-07-20T12:31:06;1.95;;;0.40;;
80322;SDS011;69636;52.372;13.610;2023-07-20T12:33:37;0.70;;;0.32;;
80322;SDS011;69636;52.372;13.610;2023-07-20T12:36:05;1.23;;;0.63;;
80322;SDS011;69636;52.372;13.610;2023-07-20T12:41:09;2.10;;;0.40;;
80322;SDS011;69636;52.372;13.610;2023-07-20T12:43:37;0.93;;;0.63;;
80322;SDS011;69636;52.372;13.610;2023-07-20T12:46:05;3.20;;;0.77;;
80322;SDS011;69636;52.372;13.610;2023-07-20T12:48:32;1.42;;;0.60;;
80322;SDS011;69636;52.372;13.610;2023-07-20T12:51:05;1.27;;;0.68;;
80322;SDS011;69636;52.372;13.610;2023-07-20T12:53:33;1.15;;;0.70;;
80322;SDS011;69636;52.372;13.610;2023-07-20T12:56:00;1.90;;;0.80;;
80322;SDS011;69636;52.372;13.610;2023-07-20T12:58:48;1.50;;;0.60;;
80322;SDS011;69636;52.372;13.610;2023-07-20T13:01:16;1.60;;;0.73;;
80322;SDS011;69636;52.372;13.610;2023-07-20T13:03:44;1.23;;;0.50;;
80322;SDS011;69636;52.372;13.610;2023-07-20T13:06:16;0.82;;;0.40;;
80322;SDS011;69636;52.372;13.610;2023-07-20T13:08:47;0.80;;;0.40;;
80322;SDS011;69636;52.372;13.610;2023-07-20T13:13:42;0.90;;;0.40;;
80322;SDS011;69636;52.372;13.610;2023-07-20T13:16:10;1.70;;;0.55;;
80322;SDS011;69636;52.372;13.610;2023-07-20T13:18:38;1.42;;;0.52;;
80322;SDS011;69636;52.372;13.610;2023-07-20T13:23:34;0.95;;;0.50;;
80322;SDS011;69636;52.372;13.610;2023-07-20T13:26:04;1.08;;;0.60;;
80322;SDS011;69636;52.372;13.610;2023-07-20T13:28:31;0.80;;;0.55;;
80322;SDS011;69636;52.372;13.610;2023-07-20T13:30:59;1.52;;;0.50;;
80322;SDS011;69636;52.372;13.610;2023-07-20T13:33:28;0.55;;;0.30;;
80322;SDS011;69636;52.372;13.610;2023-07-20T13:35:56;1.98;;;0.30;;
80322;SDS011;69636;52.372;13.610;2023-07-20T13:40:52;1.10;;;0.50;;
80322;SDS011;69636;52.372;13.610;2023-07-20T13:43:20;1.52;;;0.40;;
80322;SDS011;69636;52.372;13.610;2023-07-20T13:45:48;0.70;;;0.32;;
80322;SDS011;69636;52.372;13.610;2023-07-20T13:48:16;1.20;;;0.32;;
80322;SDS011;69636;52.372;13.610;2023-07-20T13:50:45;0.70;;;0.22;;
80322;SDS011;69636;52.372;13.610;2023-07-20T13:53:27;1.17;;;0.40;;
80322;SDS011;69636;52.372;13.610;2023-07-20T13:56:10;0.52;;;0.20;;
80322;SDS011;69636;52.372;13.610;2023-07-20T13:58:40;0.70;;;0.30;;
80322;SDS011;69636;52.372;13.610;2023-07-20T14:01:08;0.52;;;0.30;;
80322;SDS011;69636;52.372;13.610;2023-07-20T14:03:35;1.42;;;0.60;;
80322;SDS011;69636;52.372;13.610;2023-07-20T14:06:04;1.33;;;0.20;;
80322;SDS011;69636;52.372;13.610;2023-07-20T14:08:36;2.50;;;0.50;;
80322;SDS011;69636;52.372;13.610;2023-07-20T14:11:04;1.20;;;0.45;;
80322;SDS011;69636;52.372;13.610;2023-07-20T14:13:36;1.00;;;0.30;;
80322;SDS011;69636;52.372;13.610;2023-07-20T14:16:13;1.70;;;0.70;;
80322;SDS011;69636;52.372;13.610;2023-07-20T14:18:41;0.98;;;0.50;;
80322;SDS011;69636;52.372;13.610;2023-07-20T14:21:09;1.63;;;0.60;;
80322;SDS011;69636;52.372;13.610;2023-07-20T14:23:37;1.55;;;0.63;;
80322;SDS011;69636;52.372;13.610;2023-07-20T14:26:04;2.03;;;0.45;;
80322;SDS011;69636;52.372;13.610;2023-07-20T14:28:51;0.90;;;0.55;;
80322;SDS011;69636;52.372;13.610;2023-07-20T14:31:32;0.88;;;0.40;;
80322;SDS011;69636;52.372;13.610;2023-07-20T14:34:00;1.38;;;0.40;;
80322;SDS011;69636;52.372;13.610;2023-07-20T14:38:56;0.88;;;0.20;;
80322;SDS011;69636;52.372;13.610;2023-07-20T14:41:23;0.82;;;0.22;;
80322;SDS011;69636;52.372;13.610;2023-07-20T14:43:52;0.90;;;0.40;;
80322;SDS011;69636;52.372;13.610;2023-07-20T14:46:24;0.45;;;0.20;;
80322;SDS011;69636;52.372;13.610;2023-07-20T14:48:52;1.40;;;0.40;;
80322;SDS011;69636;52.372;13.610;2023-07-20T14:51:20;59.72;;;42.20;;
80322;SDS011;69636;52.372;13.610;2023-07-20T14:53:47;1.05;;;0.60;;
80322;SDS011;69636;52.372;13.610;2023-07-20T14:56:14;0.75;;;0.75;;
80322;SDS011;69636;52.372;13.610;2023-07-20T14:58:42;1.27;;;0.55;;
80322;SDS011;69636;52.372;13.610;2023-07-20T15:01:14;1.10;;;0.45;;
80322;SDS011;69636;52.372;13.610;2023-07-20T15:03:41;1.48;;;0.50;;
80322;SDS011;69636;52.372;13.610;2023-07-20T15:06:10;1.10;;;0.50;;
80322;SDS011;69636;52.372;13.610;2023-07-20T15:08:38;0.85;;;0.40;;
80322;SDS011;69636;52.372;13.610;2023-07-20T15:11:06;1.42;;;0.73;;
80322;SDS011;69636;52.372;13.610;2023-07-20T15:13:34;1.50;;;1.00;;
80322;SDS011;69636;52.372;13.610;2023-07-20T15:16:02;0.80;;;0.40;;
80322;SDS011;69636;52.372;13.610;2023-07-20T15:18:31;1.10;;;0.55;;